Roanoke — WDD9656 — position and weather

sailwx.info

Track history (hours):
 
Tides and Currents Weather Stations Pressure Air Temp Water Temp Dewpoint Dewpoint Depression Visibility Wind Speed Wind Dir Waves Ship Positions

Roanoke

Owner: Vane Line Bunkering, Baltimore, MD. More information available from US FCC via Universal Licensing System and Coast Guard Vessel Documentation Center.

Last reported at 2015-Jul-05 14:32 UTC. Time now 2015-Jul-05 15:02 UTC.
Position N 39°16' W 076°36'.

Length 32 m; draft 13 m.

Type: Towing. MMSI: 367314510.

Date/timePositionNaut miles runAvg speedWind from/ knotsBaromVisibWave heightAir tempDewpointWater temp
2015-Jul-05 14:32N 39°16' W 076°36'0 0.0
2015-Jul-05 13:33N 39°16' W 076°36'1 1.3
2015-Jul-05 12:32N 39°15' W 076°34'1 0.6
2015-Jul-05 11:30N 39°15' W 076°34'0 0.0
2015-Jul-05 10:28N 39°15' W 076°34'0 0.0
2015-Jul-05 07:31N 39°15' W 076°34'0 0.0
2015-Jul-05 06:16N 39°15' W 076°34'0 0.0
2015-Jul-05 02:13N 39°15' W 076°34'2 0.5
2015-Jul-04 23:05N 39°15' W 076°32'1 0.2
2015-Jul-04 20:31N 39°15' W 076°32'3 2.5
2015-Jul-04 19:30N 39°13' W 076°35'0 0.0
2015-Jul-04 18:33N 39°13' W 076°35'0 0.0
2015-Jul-04 17:31N 39°13' W 076°35'0 0.0
2015-Jul-04 16:32N 39°13' W 076°35'0 0.0
2015-Jul-04 15:32N 39°13' W 076°35'0 0.0
2015-Jul-04 14:33N 39°13' W 076°35'1 1.2
2015-Jul-04 13:34N 39°13' W 076°33'1 1.2
2015-Jul-04 12:22N 39°15' W 076°34'0 0.0
2015-Jul-04 11:08N 39°15' W 076°34'0 0.0
2015-Jul-04 08:16N 39°15' W 076°34'0 0.0
2015-Jul-04 07:20N 39°15' W 076°34'0 0.0
2015-Jul-03 23:31N 39°15' W 076°34'4 4.4
2015-Jul-03 22:33N 39°12' W 076°30'8 8.1
2015-Jul-03 21:31N 39°14' W 076°20'9 8.9
2015-Jul-03 20:33N 39°20' W 076°11'1010.2
2015-Jul-03 19:33N 39°26' W 076°01'1010.2
2015-Jul-03 18:33N 39°32' W 075°50'1010.0
2015-Jul-03 17:33N 39°33' W 075°37'7 7.2
2015-Jul-03 16:33N 39°27' W 075°33'1111.0
2015-Jul-03 15:33N 39°19' W 075°23'8 7.6
2015-Jul-03 14:33N 39°11' W 075°24'0 0.3
2015-Jul-03 13:33N 39°11' W 075°24'0 0.0
2015-Jul-03 12:33N 39°11' W 075°24'0 0.0
2015-Jul-03 11:31N 39°11' W 075°24'0 0.0
2015-Jul-03 10:32N 39°11' W 075°24'0 0.0
2015-Jul-03 09:32N 39°11' W 075°24'0 0.0
2015-Jul-03 08:33N 39°11' W 075°24'0 0.0
2015-Jul-03 07:31N 39°11' W 075°24'0 0.0
2015-Jul-03 06:31N 39°11' W 075°24'0 0.0
2015-Jul-03 05:32N 39°11' W 075°24'0 0.0
2015-Jul-03 04:33N 39°11' W 075°24'0 0.0
2015-Jul-03 03:30N 39°11' W 075°24'0 0.0
2015-Jul-03 02:31N 39°11' W 075°24'0 0.2
2015-Jul-03 01:33N 39°11' W 075°24'4 3.6
2015-Jul-03 00:29N 39°14' W 075°20'0 0.0
2015-Jul-02 23:32N 39°14' W 075°20'0 0.1
2015-Jul-02 22:33N 39°14' W 075°20'0 0.1
2015-Jul-02 21:28N 39°14' W 075°20'6 6.1
2015-Jul-02 20:33N 39°19' W 075°24'9 8.7
2015-Jul-02 19:33N 39°25' W 075°31'7 7.3
2015-Jul-02 18:33N 39°32' W 075°33'4 4.5
2015-Jul-02 17:33N 39°33' W 075°38'5 5.0
2015-Jul-02 16:33N 39°32' W 075°45'6 5.9
2015-Jul-02 15:33N 39°31' W 075°52'7 6.5
2015-Jul-02 14:33N 39°27' W 075°59'6 6.5
2015-Jul-02 13:33N 39°23' W 076°05'7 7.0
2015-Jul-02 12:33N 39°19' W 076°12'7 6.6
2015-Jul-02 11:33N 39°14' W 076°19'6 6.4
2015-Jul-02 10:33N 39°11' W 076°26'6 5.8
2015-Jul-02 09:33N 39°13' W 076°32'2 2.1
2015-Jul-02 08:27N 39°15' W 076°34'0 0.0
2015-Jul-02 05:32N 39°15' W 076°34'0 0.0
2015-Jul-02 04:30N 39°15' W 076°34'0 0.0
2015-Jul-02 03:31N 39°15' W 076°34'0 0.0
2015-Jul-02 02:23N 39°15' W 076°34'2 0.7
2015-Jul-01 23:33N 39°14' W 076°32'6 6.2
2015-Jul-01 22:32N 39°11' W 076°25'6 6.3
2015-Jul-01 21:33N 39°15' W 076°18'6 6.0
2015-Jul-01 20:32N 39°19' W 076°13'7 7.3
2015-Jul-01 19:34N 39°23' W 076°05'8 7.5
2015-Jul-01 18:34N 39°28' W 075°58'7 7.4
2015-Jul-01 17:33N 39°32' W 075°49'7 7.5
2015-Jul-01 16:34N 39°33' W 075°40'5 5.3
2015-Jul-01 15:34N 39°31' W 075°33'8 8.2
2015-Jul-01 14:34N 39°24' W 075°29'9 9.0
2015-Jul-01 13:33N 39°17' W 075°22'6 6.1
2015-Jul-01 12:34N 39°11' W 075°24'0 0.2
2015-Jul-01 11:31N 39°11' W 075°24'0 0.0
2015-Jul-01 10:32N 39°11' W 075°24'0 0.0
2015-Jul-01 09:32N 39°11' W 075°24'0 0.0
2015-Jul-01 08:33N 39°11' W 075°24'0 0.0
2015-Jul-01 07:31N 39°11' W 075°24'0 0.0
2015-Jul-01 06:19N 39°11' W 075°24'0 0.0
2015-Jul-01 05:32N 39°11' W 075°24'0 0.0
2015-Jul-01 04:33N 39°11' W 075°24'0 0.0
2015-Jul-01 03:33N 39°11' W 075°24'0 0.0
2015-Jul-01 02:31N 39°11' W 075°24'0 0.0
2015-Jul-01 01:32N 39°11' W 075°24'0 0.0
2015-Jul-01 00:32N 39°11' W 075°24'4 4.0
2015-Jun-30 23:33N 39°14' W 075°20'1 0.7
2015-Jun-30 22:31N 39°14' W 075°21'0 0.0
2015-Jun-30 21:31N 39°14' W 075°21'0 0.0
2015-Jun-30 20:32N 39°14' W 075°21'0 0.1
2015-Jun-30 19:33N 39°14' W 075°21'0 0.1
2015-Jun-30 18:33N 39°14' W 075°20'0 0.0
2015-Jun-30 12:19N 39°14' W 075°21'0 0.4
2015-Jun-30 11:08N 39°15' W 075°20'3 5.4
2015-Jun-30 10:32N 39°17' W 075°22'7 6.3
2015-Jun-30 09:22N 39°23' W 075°29'43 4.2
2015-Jun-29 23:14N 39°13' W 076°22'4 6.0
2015-Jun-29 22:33N 39°11' W 076°27'6 6.1
2015-Jun-29 21:33N 39°14' W 076°33'1 0.7
2015-Jun-29 20:15N 39°15' W 076°34'0 0.0
2015-Jun-29 19:25N 39°15' W 076°34'0 0.0
2015-Jun-29 17:05N 39°15' W 076°34'0 0.0
2015-Jun-29 15:21N 39°15' W 076°34'0 0.1
2015-Jun-29 14:32N 39°15' W 076°34'0 0.3
2015-Jun-29 13:32N 39°15' W 076°34'0 0.0
2015-Jun-29 12:24N 39°15' W 076°34'1 1.3
2015-Jun-29 11:33N 39°15' W 076°33'0 0.0
2015-Jun-28 23:28N 39°16' W 076°33'1 1.2
2015-Jun-28 22:31N 39°15' W 076°34'0 0.0
2015-Jun-28 17:14N 39°15' W 076°34'0 0.0
2015-Jun-28 09:19N 39°15' W 076°34'0 0.0
2015-Jun-28 07:26N 39°15' W 076°34'0 0.0
2015-Jun-28 06:30N 39°15' W 076°34'0 0.0
2015-Jun-28 03:20N 39°15' W 076°34'0 0.0
2015-Jun-27 22:09N 39°15' W 076°34'0 0.0
2015-Jun-27 17:30N 39°15' W 076°34'0 0.0
2015-Jun-27 09:33N 39°15' W 076°34'0 0.0
2015-Jun-27 06:26N 39°15' W 076°34'0 0.0
2015-Jun-27 05:14N 39°15' W 076°34'0 0.0
2015-Jun-27 04:33N 39°15' W 076°34'0 0.0
2015-Jun-27 02:19N 39°15' W 076°34'1 1.4
2015-Jun-27 01:31N 39°15' W 076°33'51 7.2
2015-Jun-26 18:22N 39°38' W 075°34'810.3
2015-Jun-26 17:33N 39°46' W 075°29'1010.0
2015-Jun-26 16:33N 39°51' W 075°17'7 7.5
2015-Jun-26 15:33N 39°54' W 075°08'3 2.6
2015-Jun-26 14:33N 39°53' W 075°12'0 0.2
2015-Jun-26 13:31N 39°53' W 075°12'0 0.0
2015-Jun-26 12:32N 39°53' W 075°12'0 0.0
2015-Jun-26 11:33N 39°53' W 075°12'0 0.0
2015-Jun-26 10:33N 39°53' W 075°12'0 0.0
2015-Jun-26 09:31N 39°53' W 075°12'0 0.0
2015-Jun-26 08:32N 39°53' W 075°12'0 0.0
2015-Jun-26 07:32N 39°53' W 075°12'0 0.0
2015-Jun-26 06:33N 39°53' W 075°12'0 0.0
2015-Jun-26 05:31N 39°53' W 075°12'0 0.0
2015-Jun-26 04:31N 39°53' W 075°12'0 0.1
2015-Jun-26 03:33N 39°53' W 075°12'2 2.2
2015-Jun-26 02:33N 39°53' W 075°09'8 8.4
2015-Jun-26 01:33N 39°51' W 075°20'9 9.3
2015-Jun-26 00:33N 39°45' W 075°29'10 9.1
2015-Jun-25 23:27N 39°36' W 075°34'23 9.9
2015-Jun-25 21:09N 39°16' W 075°21'4 7.5
2015-Jun-25 20:33N 39°12' W 075°23'  
Track history (hours):
 
Tides and Currents Weather Stations Pressure Air Temp Water Temp Dewpoint Dewpoint Depression Visibility Wind Speed Wind Dir Waves Ship Positions

Roanoke

Owner: Vane Line Bunkering, Baltimore, MD. More information available from US FCC via Universal Licensing System and Coast Guard Vessel Documentation Center.

Last reported at 2015-Jul-05 14:32 UTC. Time now 2015-Jul-05 15:02 UTC.
Position N 39°16' W 076°36'.

Length 32 m; draft 13 m.

Type: Towing. MMSI: 367314510.

Date/timePositionNaut miles runAvg speedWind from/ knotsBaromVisibWave heightAir tempDewpointWater temp
2015-Jul-05 14:32N 39°16' W 076°36'0 0.0
2015-Jul-05 13:33N 39°16' W 076°36'1 1.3
2015-Jul-05 12:32N 39°15' W 076°34'1 0.6
2015-Jul-05 11:30N 39°15' W 076°34'0 0.0
2015-Jul-05 10:28N 39°15' W 076°34'0 0.0
2015-Jul-05 07:31N 39°15' W 076°34'0 0.0
2015-Jul-05 06:16N 39°15' W 076°34'0 0.0
2015-Jul-05 02:13N 39°15' W 076°34'2 0.5
2015-Jul-04 23:05N 39°15' W 076°32'1 0.2
2015-Jul-04 20:31N 39°15' W 076°32'3 2.5
2015-Jul-04 19:30N 39°13' W 076°35'0 0.0
2015-Jul-04 18:33N 39°13' W 076°35'0 0.0
2015-Jul-04 17:31N 39°13' W 076°35'0 0.0
2015-Jul-04 16:32N 39°13' W 076°35'0 0.0
2015-Jul-04 15:32N 39°13' W 076°35'0 0.0
2015-Jul-04 14:33N 39°13' W 076°35'1 1.2
2015-Jul-04 13:34N 39°13' W 076°33'1 1.2
2015-Jul-04 12:22N 39°15' W 076°34'0 0.0
2015-Jul-04 11:08N 39°15' W 076°34'0 0.0
2015-Jul-04 08:16N 39°15' W 076°34'0 0.0
2015-Jul-04 07:20N 39°15' W 076°34'0 0.0
2015-Jul-03 23:31N 39°15' W 076°34'4 4.4
2015-Jul-03 22:33N 39°12' W 076°30'8 8.1
2015-Jul-03 21:31N 39°14' W 076°20'9 8.9
2015-Jul-03 20:33N 39°20' W 076°11'1010.2
2015-Jul-03 19:33N 39°26' W 076°01'1010.2
2015-Jul-03 18:33N 39°32' W 075°50'1010.0
2015-Jul-03 17:33N 39°33' W 075°37'7 7.2
2015-Jul-03 16:33N 39°27' W 075°33'1111.0
2015-Jul-03 15:33N 39°19' W 075°23'8 7.6
2015-Jul-03 14:33N 39°11' W 075°24'0 0.3
2015-Jul-03 13:33N 39°11' W 075°24'0 0.0
2015-Jul-03 12:33N 39°11' W 075°24'0 0.0
2015-Jul-03 11:31N 39°11' W 075°24'0 0.0
2015-Jul-03 10:32N 39°11' W 075°24'0 0.0
2015-Jul-03 09:32N 39°11' W 075°24'0 0.0
2015-Jul-03 08:33N 39°11' W 075°24'0 0.0
2015-Jul-03 07:31N 39°11' W 075°24'0 0.0
2015-Jul-03 06:31N 39°11' W 075°24'0 0.0
2015-Jul-03 05:32N 39°11' W 075°24'0 0.0
2015-Jul-03 04:33N 39°11' W 075°24'0 0.0
2015-Jul-03 03:30N 39°11' W 075°24'0 0.0
2015-Jul-03 02:31N 39°11' W 075°24'0 0.2
2015-Jul-03 01:33N 39°11' W 075°24'4 3.6
2015-Jul-03 00:29N 39°14' W 075°20'0 0.0
2015-Jul-02 23:32N 39°14' W 075°20'0 0.1
2015-Jul-02 22:33N 39°14' W 075°20'0 0.1
2015-Jul-02 21:28N 39°14' W 075°20'6 6.1
2015-Jul-02 20:33N 39°19' W 075°24'9 8.7
2015-Jul-02 19:33N 39°25' W 075°31'7 7.3
2015-Jul-02 18:33N 39°32' W 075°33'4 4.5
2015-Jul-02 17:33N 39°33' W 075°38'5 5.0
2015-Jul-02 16:33N 39°32' W 075°45'6 5.9
2015-Jul-02 15:33N 39°31' W 075°52'7 6.5
2015-Jul-02 14:33N 39°27' W 075°59'6 6.5
2015-Jul-02 13:33N 39°23' W 076°05'7 7.0
2015-Jul-02 12:33N 39°19' W 076°12'7 6.6
2015-Jul-02 11:33N 39°14' W 076°19'6 6.4
2015-Jul-02 10:33N 39°11' W 076°26'6 5.8
2015-Jul-02 09:33N 39°13' W 076°32'2 2.1
2015-Jul-02 08:27N 39°15' W 076°34'0 0.0
2015-Jul-02 05:32N 39°15' W 076°34'0 0.0
2015-Jul-02 04:30N 39°15' W 076°34'0 0.0
2015-Jul-02 03:31N 39°15' W 076°34'0 0.0
2015-Jul-02 02:23N 39°15' W 076°34'2 0.7
2015-Jul-01 23:33N 39°14' W 076°32'6 6.2
2015-Jul-01 22:32N 39°11' W 076°25'6 6.3
2015-Jul-01 21:33N 39°15' W 076°18'6 6.0
2015-Jul-01 20:32N 39°19' W 076°13'7 7.3
2015-Jul-01 19:34N 39°23' W 076°05'8 7.5
2015-Jul-01 18:34N 39°28' W 075°58'7 7.4
2015-Jul-01 17:33N 39°32' W 075°49'7 7.5
2015-Jul-01 16:34N 39°33' W 075°40'5 5.3
2015-Jul-01 15:34N 39°31' W 075°33'8 8.2
2015-Jul-01 14:34N 39°24' W 075°29'9 9.0
2015-Jul-01 13:33N 39°17' W 075°22'6 6.1
2015-Jul-01 12:34N 39°11' W 075°24'0 0.2
2015-Jul-01 11:31N 39°11' W 075°24'0 0.0
2015-Jul-01 10:32N 39°11' W 075°24'0 0.0
2015-Jul-01 09:32N 39°11' W 075°24'0 0.0
2015-Jul-01 08:33N 39°11' W 075°24'0 0.0
2015-Jul-01 07:31N 39°11' W 075°24'0 0.0
2015-Jul-01 06:19N 39°11' W 075°24'0 0.0
2015-Jul-01 05:32N 39°11' W 075°24'0 0.0
2015-Jul-01 04:33N 39°11' W 075°24'0 0.0
2015-Jul-01 03:33N 39°11' W 075°24'0 0.0
2015-Jul-01 02:31N 39°11' W 075°24'0 0.0
2015-Jul-01 01:32N 39°11' W 075°24'0 0.0
2015-Jul-01 00:32N 39°11' W 075°24'4 4.0
2015-Jun-30 23:33N 39°14' W 075°20'1 0.7
2015-Jun-30 22:31N 39°14' W 075°21'0 0.0
2015-Jun-30 21:31N 39°14' W 075°21'0 0.0
2015-Jun-30 20:32N 39°14' W 075°21'0 0.1
2015-Jun-30 19:33N 39°14' W 075°21'0 0.1
2015-Jun-30 18:33N 39°14' W 075°20'0 0.0
2015-Jun-30 12:19N 39°14' W 075°21'0 0.4
2015-Jun-30 11:08N 39°15' W 075°20'3 5.4
2015-Jun-30 10:32N 39°17' W 075°22'7 6.3
2015-Jun-30 09:22N 39°23' W 075°29'43 4.2
2015-Jun-29 23:14N 39°13' W 076°22'4 6.0
2015-Jun-29 22:33N 39°11' W 076°27'6 6.1
2015-Jun-29 21:33N 39°14' W 076°33'1 0.7
2015-Jun-29 20:15N 39°15' W 076°34'0 0.0
2015-Jun-29 19:25N 39°15' W 076°34'0 0.0
2015-Jun-29 17:05N 39°15' W 076°34'0 0.0
2015-Jun-29 15:21N 39°15' W 076°34'0 0.1
2015-Jun-29 14:32N 39°15' W 076°34'0 0.3
2015-Jun-29 13:32N 39°15' W 076°34'0 0.0
2015-Jun-29 12:24N 39°15' W 076°34'1 1.3
2015-Jun-29 11:33N 39°15' W 076°33'0 0.0
2015-Jun-28 23:28N 39°16' W 076°33'1 1.2
2015-Jun-28 22:31N 39°15' W 076°34'0 0.0
2015-Jun-28 17:14N 39°15' W 076°34'0 0.0
2015-Jun-28 09:19N 39°15' W 076°34'0 0.0
2015-Jun-28 07:26N 39°15' W 076°34'0 0.0
2015-Jun-28 06:30N 39°15' W 076°34'0 0.0
2015-Jun-28 03:20N 39°15' W 076°34'0 0.0
2015-Jun-27 22:09N 39°15' W 076°34'0 0.0
2015-Jun-27 17:30N 39°15' W 076°34'0 0.0
2015-Jun-27 09:33N 39°15' W 076°34'0 0.0
2015-Jun-27 06:26N 39°15' W 076°34'0 0.0
2015-Jun-27 05:14N 39°15' W 076°34'0 0.0
2015-Jun-27 04:33N 39°15' W 076°34'0 0.0
2015-Jun-27 02:19N 39°15' W 076°34'1 1.4
2015-Jun-27 01:31N 39°15' W 076°33'51 7.2
2015-Jun-26 18:22N 39°38' W 075°34'810.3
2015-Jun-26 17:33N 39°46' W 075°29'1010.0
2015-Jun-26 16:33N 39°51' W 075°17'7 7.5
2015-Jun-26 15:33N 39°54' W 075°08'3 2.6
2015-Jun-26 14:33N 39°53' W 075°12'0 0.2
2015-Jun-26 13:31N 39°53' W 075°12'0 0.0
2015-Jun-26 12:32N 39°53' W 075°12'0 0.0
2015-Jun-26 11:33N 39°53' W 075°12'0 0.0
2015-Jun-26 10:33N 39°53' W 075°12'0 0.0
2015-Jun-26 09:31N 39°53' W 075°12'0 0.0
2015-Jun-26 08:32N 39°53' W 075°12'0 0.0
2015-Jun-26 07:32N 39°53' W 075°12'0 0.0
2015-Jun-26 06:33N 39°53' W 075°12'0 0.0
2015-Jun-26 05:31N 39°53' W 075°12'0 0.0
2015-Jun-26 04:31N 39°53' W 075°12'0 0.1
2015-Jun-26 03:33N 39°53' W 075°12'2 2.2
2015-Jun-26 02:33N 39°53' W 075°09'8 8.4
2015-Jun-26 01:33N 39°51' W 075°20'9 9.3
2015-Jun-26 00:33N 39°45' W 075°29'10 9.1
2015-Jun-25 23:27N 39°36' W 075°34'23 9.9
2015-Jun-25 21:09N 39°16' W 075°21'4 7.5
2015-Jun-25 20:33N 39°12' W 075°23'  

Dump ship's entire track history